createdAt,value
2022-08-17T00:00:04.653Z,962.22
2022-08-17T00:01:04.659Z,962.20
2022-08-17T00:02:05.015Z,962.20
2022-08-17T00:03:04.523Z,962.21
2022-08-17T00:04:09.305Z,962.23
2022-08-17T00:05:04.405Z,962.17
2022-08-17T00:06:04.363Z,962.15
2022-08-17T00:07:04.307Z,962.18
2022-08-17T00:08:04.260Z,962.19
2022-08-17T00:09:04.224Z,962.22
2022-08-17T00:10:04.164Z,962.21
2022-08-17T00:11:04.137Z,962.25
2022-08-17T00:12:41.081Z,962.25
2022-08-17T00:13:04.014Z,962.26
2022-08-17T00:14:03.965Z,962.25
2022-08-17T00:15:03.917Z,962.28
2022-08-17T00:16:03.884Z,962.30
2022-08-17T00:17:03.907Z,962.25
2022-08-17T00:18:03.790Z,962.29
2022-08-17T00:19:08.238Z,962.29
2022-08-17T00:20:03.676Z,962.29
2022-08-17T00:21:03.635Z,962.31
2022-08-17T00:22:33.778Z,962.29
2022-08-17T00:23:03.527Z,962.29
2022-08-17T00:24:03.494Z,962.28
2022-08-17T00:25:03.434Z,962.29
2022-08-17T00:26:03.393Z,962.27
2022-08-17T00:27:03.348Z,962.29
2022-08-17T00:28:03.286Z,962.30
2022-08-17T00:29:03.241Z,962.26
2022-08-17T00:30:03.199Z,962.27
2022-08-17T00:31:03.147Z,962.28
2022-08-17T00:33:12.527Z,962.25
2022-08-17T00:33:14.483Z,962.29
2022-08-17T00:34:02.994Z,962.30
2022-08-17T00:35:02.968Z,962.25
2022-08-17T00:36:02.897Z,962.31
2022-08-17T00:37:02.862Z,962.29
2022-08-17T00:38:02.814Z,962.30
2022-08-17T00:39:02.754Z,962.29
2022-08-17T00:40:02.741Z,962.28
2022-08-17T00:41:02.671Z,962.22
2022-08-17T00:42:02.627Z,962.29
2022-08-17T00:43:02.555Z,962.28
2022-08-17T00:44:02.510Z,962.27
2022-08-17T00:45:02.548Z,962.29
2022-08-17T00:46:02.409Z,962.26
2022-08-17T00:47:02.382Z,962.23
2022-08-17T00:48:02.311Z,962.21
2022-08-17T00:49:02.269Z,962.20
2022-08-17T00:50:02.213Z,962.20
2022-08-17T00:51:02.164Z,962.17
2022-08-17T00:52:02.132Z,962.14
2022-08-17T00:53:02.070Z,962.17
2022-08-17T00:54:02.019Z,962.18
2022-08-17T00:55:01.975Z,962.17
2022-08-17T00:56:01.926Z,962.17
2022-08-17T00:57:01.890Z,962.16
2022-08-17T00:58:01.829Z,962.16
2022-08-17T00:59:01.777Z,962.16
2022-08-17T01:00:03.343Z,962.13
2022-08-17T01:01:01.784Z,962.13
2022-08-17T01:02:01.643Z,962.10
2022-08-17T01:03:01.579Z,962.10
2022-08-17T01:04:01.554Z,962.10
2022-08-17T01:05:01.503Z,962.09
2022-08-17T01:06:01.435Z,962.12
2022-08-17T01:07:01.393Z,962.13
2022-08-17T01:08:01.336Z,962.11
2022-08-17T01:09:01.290Z,962.11
2022-08-17T01:10:01.238Z,962.08
2022-08-17T01:11:01.915Z,962.10
2022-08-17T01:12:01.141Z,962.08
2022-08-17T01:13:01.094Z,962.09
2022-08-17T01:14:01.054Z,962.10
2022-08-17T01:15:01.000Z,962.06
2022-08-17T01:16:00.968Z,962.05
2022-08-17T01:17:00.899Z,962.02
2022-08-17T01:18:00.848Z,962.07
2022-08-17T01:19:00.801Z,962.06
2022-08-17T01:20:00.762Z,962.06
2022-08-17T01:21:00.716Z,962.03
2022-08-17T01:22:00.668Z,962.02
2022-08-17T01:23:00.604Z,962.04
2022-08-17T01:24:00.555Z,962.05
2022-08-17T01:25:00.505Z,962.05
2022-08-17T01:26:00.460Z,962.05
2022-08-17T01:27:00.430Z,962.06
2022-08-17T01:28:00.367Z,962.06
2022-08-17T01:29:00.312Z,962.05
2022-08-17T01:30:00.263Z,962.05
2022-08-17T01:31:00.221Z,962.03
2022-08-17T01:32:00.179Z,962.07
2022-08-17T01:33:00.137Z,962.07
2022-08-17T01:34:00.070Z,962.04
2022-08-17T01:35:00.017Z,962.06
2022-08-17T01:35:59.976Z,962.07
2022-08-17T01:36:59.936Z,962.09
2022-08-17T01:37:59.889Z,962.12
2022-08-17T01:38:59.830Z,962.13
2022-08-17T01:39:59.852Z,962.17
2022-08-17T01:40:59.728Z,962.18
2022-08-17T01:41:59.678Z,962.16
2022-08-17T01:42:59.645Z,962.14
2022-08-17T01:43:59.578Z,962.13
2022-08-17T01:44:59.545Z,962.17
2022-08-17T01:46:03.258Z,962.16
2022-08-17T01:46:59.434Z,962.13
2022-08-17T01:47:59.389Z,962.17
2022-08-17T01:48:59.360Z,962.15
2022-08-17T01:49:59.299Z,962.21
2022-08-17T01:50:59.264Z,962.21
2022-08-17T01:51:59.191Z,962.23
2022-08-17T01:52:59.141Z,962.24
2022-08-17T01:53:59.089Z,962.24
2022-08-17T01:54:59.058Z,962.25
2022-08-17T01:55:58.994Z,962.29
2022-08-17T01:56:58.958Z,962.25
2022-08-17T01:57:58.898Z,962.26
2022-08-17T01:58:58.846Z,962.29
2022-08-17T01:59:58.817Z,962.26
2022-08-17T02:01:00.611Z,962.23
2022-08-17T02:01:58.811Z,962.23
2022-08-17T02:02:58.651Z,962.21
2022-08-17T02:04:00.849Z,962.21
2022-08-17T02:04:58.553Z,962.20
2022-08-17T02:05:58.522Z,962.20
2022-08-17T02:06:58.459Z,962.18
2022-08-17T02:08:00.258Z,962.17
2022-08-17T02:09:02.954Z,962.18
2022-08-17T02:09:58.325Z,962.14
2022-08-17T02:10:58.259Z,962.12
2022-08-17T02:11:58.226Z,962.13
2022-08-17T02:12:58.162Z,962.14
2022-08-17T02:14:02.741Z,962.13
2022-08-17T02:14:58.080Z,962.16
2022-08-17T02:15:58.022Z,962.17
2022-08-17T02:16:57.988Z,962.19
2022-08-17T02:17:57.920Z,962.15
2022-08-17T02:18:57.873Z,962.16
2022-08-17T02:19:57.822Z,962.17
2022-08-17T02:20:57.795Z,962.16
2022-08-17T02:21:57.725Z,962.17
2022-08-17T02:22:57.698Z,962.20
2022-08-17T02:23:57.630Z,962.20
2022-08-17T02:25:01.219Z,962.21
2022-08-17T02:25:57.530Z,962.23
2022-08-17T02:26:57.486Z,962.21
2022-08-17T02:27:57.430Z,962.17
2022-08-17T02:28:57.481Z,962.15
2022-08-17T02:29:57.333Z,962.14
2022-08-17T02:31:01.946Z,962.11
2022-08-17T02:31:57.238Z,962.12
2022-08-17T02:32:57.203Z,962.10
2022-08-17T02:34:04.005Z,962.07
2022-08-17T02:34:57.116Z,962.08
2022-08-17T02:35:57.042Z,962.04
2022-08-17T02:36:56.994Z,962.04
2022-08-17T02:37:56.956Z,962.01
2022-08-17T02:38:56.921Z,962.01
2022-08-17T02:39:57.087Z,962.01
2022-08-17T02:40:56.810Z,962.01
2022-08-17T02:41:56.749Z,962.03
2022-08-17T02:42:56.714Z,962.02
2022-08-17T02:43:56.648Z,962.00
2022-08-17T02:44:56.602Z,962.00
2022-08-17T02:45:56.556Z,961.95
2022-08-17T02:46:56.520Z,961.96
2022-08-17T02:47:56.455Z,961.93
2022-08-17T02:48:56.414Z,961.94
2022-08-17T02:49:56.383Z,961.93
2022-08-17T02:50:56.312Z,961.93
2022-08-17T02:51:56.277Z,961.92
2022-08-17T02:53:02.498Z,961.94
2022-08-17T02:54:35.731Z,961.94
2022-08-17T02:54:56.142Z,961.92
2022-08-17T02:55:56.065Z,961.90
2022-08-17T02:56:56.024Z,961.89
2022-08-17T02:57:55.976Z,961.89
2022-08-17T02:58:55.916Z,961.85
2022-08-17T02:59:56.713Z,961.88
2022-08-17T03:00:55.845Z,961.88
2022-08-17T03:01:55.914Z,961.89
2022-08-17T03:02:55.724Z,961.91
2022-08-17T03:03:55.674Z,961.93
2022-08-17T03:04:55.621Z,961.95
2022-08-17T03:05:55.576Z,961.97
2022-08-17T03:06:55.551Z,961.96
2022-08-17T03:07:55.473Z,961.94
2022-08-17T03:08:55.446Z,961.98
2022-08-17T03:09:55.382Z,961.97
2022-08-17T03:10:55.358Z,961.97
2022-08-17T03:11:56.033Z,961.99
2022-08-17T03:12:55.239Z,961.99
2022-08-17T03:13:55.184Z,961.98
2022-08-17T03:14:55.133Z,961.98
2022-08-17T03:15:55.108Z,961.99
2022-08-17T03:16:55.050Z,961.93
2022-08-17T03:17:54.985Z,961.92
2022-08-17T03:18:54.943Z,961.90
2022-08-17T03:19:54.902Z,961.90
2022-08-17T03:20:54.848Z,961.89
2022-08-17T03:21:55.564Z,961.89
2022-08-17T03:22:55.185Z,961.89
2022-08-17T03:23:54.824Z,961.87
2022-08-17T03:24:54.650Z,961.88
2022-08-17T03:25:54.602Z,961.84
2022-08-17T03:26:54.546Z,961.85
2022-08-17T03:27:54.511Z,961.86
2022-08-17T03:28:54.446Z,961.81
2022-08-17T03:29:54.407Z,961.84
2022-08-17T03:30:54.368Z,961.78
2022-08-17T03:31:54.302Z,961.81
2022-08-17T03:32:54.277Z,961.79
2022-08-17T03:33:54.217Z,961.78
2022-08-17T03:34:54.157Z,961.79
2022-08-17T03:35:54.139Z,961.80
2022-08-17T03:36:54.075Z,961.80
2022-08-17T03:38:00.915Z,961.80
2022-08-17T03:38:53.958Z,961.81
2022-08-17T03:39:53.934Z,961.80
2022-08-17T03:40:57.442Z,961.82
2022-08-17T03:41:53.835Z,961.79
2022-08-17T03:42:53.765Z,961.83
2022-08-17T03:43:53.714Z,961.81
2022-08-17T03:44:53.666Z,961.82
2022-08-17T03:45:53.622Z,961.80
2022-08-17T03:46:53.581Z,961.79
2022-08-17T03:47:53.518Z,961.78
2022-08-17T03:48:53.471Z,961.81
2022-08-17T03:49:53.421Z,961.83
2022-08-17T03:50:53.370Z,961.82
2022-08-17T03:51:53.337Z,961.80
2022-08-17T03:52:53.386Z,961.84
2022-08-17T03:53:53.234Z,961.81
2022-08-17T03:54:53.193Z,961.84
2022-08-17T03:55:53.124Z,961.86
2022-08-17T03:56:53.081Z,961.86
2022-08-17T03:57:53.030Z,961.89
2022-08-17T03:58:52.980Z,961.87
2022-08-17T03:59:52.945Z,961.83
2022-08-17T04:00:52.883Z,961.86
2022-08-17T04:01:53.152Z,961.85
2022-08-17T04:02:52.795Z,961.85
2022-08-17T04:03:52.738Z,961.87
2022-08-17T04:04:52.745Z,961.87
2022-08-17T04:05:52.634Z,961.90
2022-08-17T04:06:52.584Z,961.91
2022-08-17T04:07:52.551Z,961.94
2022-08-17T04:08:52.485Z,961.94
2022-08-17T04:09:52.439Z,961.97
2022-08-17T04:10:52.385Z,961.97
2022-08-17T04:11:52.351Z,961.99
2022-08-17T04:12:52.541Z,962.02
2022-08-17T04:13:52.242Z,962.02
2022-08-17T04:14:54.667Z,962.04
2022-08-17T04:15:52.139Z,962.02
2022-08-17T04:16:52.092Z,962.05
2022-08-17T04:17:52.060Z,962.04
2022-08-17T04:18:51.993Z,962.00
2022-08-17T04:19:51.957Z,961.96
2022-08-17T04:20:51.898Z,961.99
2022-08-17T04:21:51.864Z,961.96
2022-08-17T04:22:51.859Z,961.99
2022-08-17T04:23:51.748Z,961.97
2022-08-17T04:24:51.715Z,961.99
2022-08-17T04:25:51.730Z,961.98
2022-08-17T04:26:52.801Z,962.01
2022-08-17T04:27:51.566Z,961.99
2022-08-17T04:28:51.500Z,962.02
2022-08-17T04:29:54.615Z,962.03
2022-08-17T04:30:51.403Z,962.05
2022-08-17T04:31:51.352Z,962.06
2022-08-17T04:33:04.895Z,962.06
2022-08-17T04:33:51.270Z,962.09
2022-08-17T04:34:51.207Z,962.08
2022-08-17T04:35:51.162Z,962.14
2022-08-17T04:36:51.109Z,962.12
2022-08-17T04:37:51.074Z,962.12
2022-08-17T04:38:51.011Z,962.14
2022-08-17T04:39:51.008Z,962.14
2022-08-17T04:40:50.910Z,962.18
2022-08-17T04:41:50.858Z,962.18
2022-08-17T04:42:51.004Z,962.15
2022-08-17T04:43:50.764Z,962.12
2022-08-17T04:44:50.711Z,962.10
2022-08-17T04:45:55.058Z,962.11
2022-08-17T04:46:50.649Z,962.12
2022-08-17T04:47:50.565Z,962.11
2022-08-17T04:48:50.534Z,962.08
2022-08-17T04:49:59.196Z,962.13
2022-08-17T04:50:50.430Z,962.11
2022-08-17T04:51:54.971Z,962.15
2022-08-17T04:52:50.320Z,962.17
2022-08-17T04:53:54.251Z,962.23
2022-08-17T04:54:50.235Z,962.23
2022-08-17T04:55:50.170Z,962.19
2022-08-17T04:56:50.122Z,962.18
2022-08-17T04:57:50.071Z,962.18
2022-08-17T04:58:50.231Z,962.18
2022-08-17T04:59:49.975Z,962.19
2022-08-17T05:00:50.012Z,962.21
2022-08-17T05:01:49.877Z,962.26
2022-08-17T05:02:50.742Z,962.25
2022-08-17T05:03:49.775Z,962.24
2022-08-17T05:04:49.730Z,962.26
2022-08-17T05:05:50.030Z,962.25
2022-08-17T05:06:49.644Z,962.24
2022-08-17T05:07:49.598Z,962.24
2022-08-17T05:08:49.537Z,962.25
2022-08-17T05:09:49.480Z,962.25
2022-08-17T05:10:49.454Z,962.26
2022-08-17T05:11:49.383Z,962.25
2022-08-17T05:12:49.493Z,962.28
2022-08-17T05:13:49.286Z,962.27
2022-08-17T05:14:49.238Z,962.29
2022-08-17T05:15:49.192Z,962.29
2022-08-17T05:16:49.154Z,962.26
2022-08-17T05:17:49.087Z,962.28
2022-08-17T05:18:49.055Z,962.28
2022-08-17T05:19:51.972Z,962.25
2022-08-17T05:20:48.941Z,962.28
2022-08-17T05:21:48.894Z,962.25
2022-08-17T05:22:48.878Z,962.24
2022-08-17T05:23:50.310Z,962.23
2022-08-17T05:24:53.586Z,962.22
2022-08-17T05:25:48.697Z,962.20
2022-08-17T05:26:48.663Z,962.23
2022-08-17T05:27:48.597Z,962.20
2022-08-17T05:28:48.569Z,962.19
2022-08-17T05:29:48.501Z,962.19
2022-08-17T05:30:48.655Z,962.19
2022-08-17T05:31:48.404Z,962.23
2022-08-17T05:32:48.483Z,962.23
2022-08-17T05:33:48.319Z,962.24
2022-08-17T05:34:48.257Z,962.22
2022-08-17T05:35:48.211Z,962.21
2022-08-17T05:36:48.159Z,962.21
2022-08-17T05:37:48.159Z,962.22
2022-08-17T05:38:48.067Z,962.21
2022-08-17T05:39:48.034Z,962.24
2022-08-17T05:40:47.965Z,962.25
2022-08-17T05:41:47.930Z,962.24
2022-08-17T05:42:47.883Z,962.28
2022-08-17T05:43:47.832Z,962.28
2022-08-17T05:44:47.770Z,962.31
2022-08-17T05:45:55.291Z,962.34
2022-08-17T05:46:47.668Z,962.30
2022-08-17T05:47:47.639Z,962.31
2022-08-17T05:48:47.586Z,962.32
2022-08-17T05:49:49.086Z,962.32
2022-08-17T05:50:47.474Z,962.31
2022-08-17T05:51:47.427Z,962.30
2022-08-17T05:52:47.381Z,962.26
2022-08-17T05:53:47.358Z,962.27
2022-08-17T05:54:47.357Z,962.25
2022-08-17T05:55:47.235Z,962.24
2022-08-17T05:56:47.188Z,962.22
2022-08-17T05:57:53.355Z,962.21
2022-08-17T05:58:47.086Z,962.23
2022-08-17T05:59:47.054Z,962.23
2022-08-17T06:00:47.063Z,962.21
2022-08-17T06:01:46.958Z,962.20
2022-08-17T06:02:47.997Z,962.21
2022-08-17T06:03:46.845Z,962.22
2022-08-17T06:04:46.794Z,962.22
2022-08-17T06:05:46.767Z,962.24
2022-08-17T06:06:46.699Z,962.25
2022-08-17T06:07:46.649Z,962.26
2022-08-17T06:08:46.613Z,962.27
2022-08-17T06:09:46.553Z,962.29
2022-08-17T06:10:46.524Z,962.32
2022-08-17T06:11:46.457Z,962.31
2022-08-17T06:12:46.495Z,962.36
2022-08-17T06:13:46.363Z,962.36
2022-08-17T06:14:46.310Z,962.38
2022-08-17T06:15:46.265Z,962.39
2022-08-17T06:16:46.214Z,962.38
2022-08-17T06:17:46.165Z,962.34
2022-08-17T06:18:46.132Z,962.31
2022-08-17T06:19:46.082Z,962.31
2022-08-17T06:20:46.020Z,962.30
2022-08-17T06:21:45.972Z,962.30
2022-08-17T06:22:45.922Z,962.29
2022-08-17T06:23:45.890Z,962.29
2022-08-17T06:24:45.854Z,962.33
2022-08-17T06:25:45.777Z,962.30
2022-08-17T06:26:45.728Z,962.32
2022-08-17T06:27:45.682Z,962.33
2022-08-17T06:28:45.929Z,962.33
2022-08-17T06:29:45.708Z,962.41
2022-08-17T06:30:59.790Z,962.38
2022-08-17T06:31:45.505Z,962.35
2022-08-17T06:32:45.440Z,962.32
2022-08-17T06:33:45.396Z,962.33
2022-08-17T06:34:45.343Z,962.31
2022-08-17T06:35:45.297Z,962.33
2022-08-17T06:36:45.287Z,962.32
2022-08-17T06:37:45.197Z,962.30
2022-08-17T06:38:45.165Z,962.32
2022-08-17T06:39:45.134Z,962.34
2022-08-17T06:40:45.067Z,962.36
2022-08-17T06:41:45.007Z,962.32
2022-08-17T06:43:06.179Z,962.35
2022-08-17T06:43:47.895Z,962.33
2022-08-17T06:44:51.314Z,962.30
2022-08-17T06:45:44.816Z,962.32
2022-08-17T06:46:44.765Z,962.29
2022-08-17T06:47:44.720Z,962.28
2022-08-17T06:48:44.672Z,962.26
2022-08-17T06:49:44.622Z,962.24
2022-08-17T06:50:44.591Z,962.24
2022-08-17T06:51:44.525Z,962.24
2022-08-17T06:52:47.098Z,962.25
2022-08-17T06:53:44.428Z,962.24
2022-08-17T06:54:44.393Z,962.24
2022-08-17T06:55:44.352Z,962.29
2022-08-17T06:56:54.252Z,962.32
2022-08-17T06:57:44.238Z,962.35
2022-08-17T06:58:44.191Z,962.35
2022-08-17T06:59:54.370Z,962.35
2022-08-17T07:00:44.144Z,962.38
2022-08-17T07:01:44.047Z,962.38
2022-08-17T07:02:52.396Z,962.39
2022-08-17T07:03:43.950Z,962.36
2022-08-17T07:04:43.930Z,962.37
2022-08-17T07:05:43.856Z,962.38
2022-08-17T07:06:43.812Z,962.40
2022-08-17T07:07:43.763Z,962.34
2022-08-17T07:08:43.718Z,962.33
2022-08-17T07:09:43.698Z,962.36
2022-08-17T07:10:43.622Z,962.44
2022-08-17T07:11:43.594Z,962.43
2022-08-17T07:12:43.617Z,962.45
2022-08-17T07:13:43.486Z,962.44
2022-08-17T07:14:43.432Z,962.42
2022-08-17T07:15:43.404Z,962.46
2022-08-17T07:16:43.342Z,962.47
2022-08-17T07:17:57.735Z,962.41
2022-08-17T07:18:43.264Z,962.42
2022-08-17T07:19:43.251Z,962.39
2022-08-17T07:20:43.171Z,962.39
2022-08-17T07:21:43.111Z,962.44
2022-08-17T07:22:57.455Z,962.48
2022-08-17T07:23:43.018Z,962.50
2022-08-17T07:24:42.983Z,962.46
2022-08-17T07:25:42.927Z,962.52
2022-08-17T07:26:42.885Z,962.52
2022-08-17T07:27:42.986Z,962.53
2022-08-17T07:28:42.801Z,962.54
2022-08-17T07:29:42.742Z,962.58
2022-08-17T07:30:46.809Z,962.61
2022-08-17T07:31:42.651Z,962.55
2022-08-17T07:32:42.619Z,962.60
2022-08-17T07:33:42.566Z,962.54
2022-08-17T07:34:42.513Z,962.57
2022-08-17T07:35:44.026Z,962.58
2022-08-17T07:36:42.443Z,962.59
2022-08-17T07:37:42.431Z,962.63
2022-08-17T07:38:42.337Z,962.58
2022-08-17T07:39:59.751Z,962.62
2022-08-17T07:40:42.338Z,962.66
2022-08-17T07:41:53.116Z,962.58
2022-08-17T07:42:46.528Z,962.59
2022-08-17T07:43:42.127Z,962.58
2022-08-17T07:44:42.063Z,962.61
2022-08-17T07:45:42.018Z,962.61
2022-08-17T07:46:41.975Z,962.60
2022-08-17T07:47:41.943Z,962.65
2022-08-17T07:48:41.882Z,962.64
2022-08-17T07:49:41.838Z,962.62
2022-08-17T07:50:41.794Z,962.65
2022-08-17T07:51:41.765Z,962.61
2022-08-17T07:52:51.439Z,962.66
2022-08-17T07:53:41.659Z,962.62
2022-08-17T07:54:41.629Z,962.58
2022-08-17T07:55:41.574Z,962.65
2022-08-17T07:56:41.542Z,962.61
2022-08-17T07:57:41.482Z,962.62
2022-08-17T07:58:41.438Z,962.65
2022-08-17T07:59:43.177Z,962.65
2022-08-17T08:00:41.353Z,962.60
2022-08-17T08:01:41.985Z,962.63
2022-08-17T08:02:41.404Z,962.60
2022-08-17T08:03:41.213Z,962.59
2022-08-17T08:05:50.517Z,962.57
2022-08-17T08:06:41.086Z,962.57
2022-08-17T08:07:41.041Z,962.56
2022-08-17T08:08:40.996Z,962.57
2022-08-17T08:09:40.949Z,962.57
2022-08-17T08:10:42.529Z,962.69
2022-08-17T08:11:44.225Z,962.69
2022-08-17T08:12:40.833Z,962.68
2022-08-17T08:13:40.773Z,962.71
2022-08-17T08:14:40.732Z,962.69
2022-08-17T08:15:40.688Z,962.70
2022-08-17T08:16:40.646Z,962.73
2022-08-17T08:17:40.613Z,962.77
2022-08-17T08:18:54.005Z,962.76
2022-08-17T08:19:40.516Z,962.80
2022-08-17T08:20:51.908Z,962.79
2022-08-17T08:21:40.423Z,962.84
2022-08-17T08:22:40.385Z,962.83
2022-08-17T08:23:40.338Z,962.82
2022-08-17T08:24:40.314Z,962.82
2022-08-17T08:25:40.248Z,962.91
2022-08-17T08:26:40.221Z,962.86
2022-08-17T08:27:40.164Z,962.86
2022-08-17T08:28:40.131Z,962.83
2022-08-17T08:29:40.072Z,962.93
2022-08-17T08:30:40.046Z,962.88
2022-08-17T08:31:42.383Z,962.92
2022-08-17T08:32:39.961Z,962.94
2022-08-17T08:33:39.897Z,962.89
2022-08-17T08:34:47.415Z,962.86
2022-08-17T08:35:39.811Z,962.88
2022-08-17T08:37:14.238Z,962.90
2022-08-17T08:37:42.882Z,962.89
2022-08-17T08:38:39.680Z,962.87
2022-08-17T08:39:39.711Z,962.90
2022-08-17T08:40:39.592Z,962.90
2022-08-17T08:41:39.564Z,962.94
2022-08-17T08:42:39.526Z,962.95
2022-08-17T08:43:39.458Z,962.97
2022-08-17T08:45:00.663Z,962.93
2022-08-17T08:45:39.371Z,962.95
2022-08-17T08:46:39.328Z,962.94
2022-08-17T08:47:39.301Z,962.88
2022-08-17T08:48:57.061Z,962.87
2022-08-17T08:50:02.512Z,962.89
2022-08-17T08:50:39.186Z,962.86
2022-08-17T08:51:39.109Z,962.94
2022-08-17T08:52:39.082Z,962.91
2022-08-17T08:53:39.035Z,962.97
2022-08-17T08:54:38.979Z,962.93
2022-08-17T08:55:38.936Z,962.95
2022-08-17T08:56:38.893Z,962.93
2022-08-17T08:57:38.854Z,962.98
2022-08-17T08:58:41.270Z,962.99
2022-08-17T08:59:41.962Z,963.00
2022-08-17T09:00:38.717Z,963.04
2022-08-17T09:01:38.716Z,962.96
2022-08-17T09:02:38.628Z,962.97
2022-08-17T09:03:52.161Z,962.98
2022-08-17T09:05:12.412Z,963.01
2022-08-17T09:05:38.500Z,963.02
2022-08-17T09:06:39.788Z,962.98
2022-08-17T09:07:38.413Z,962.95
2022-08-17T09:08:38.393Z,962.89
2022-08-17T09:09:38.329Z,962.90
2022-08-17T09:10:38.288Z,962.86
2022-08-17T09:12:02.378Z,962.84
2022-08-17T09:12:38.197Z,962.86
2022-08-17T09:13:38.169Z,962.95
2022-08-17T09:14:43.114Z,962.88
2022-08-17T09:15:38.085Z,962.83
2022-08-17T09:16:38.025Z,962.81
2022-08-17T09:17:37.979Z,962.78
2022-08-17T09:19:02.159Z,962.79
2022-08-17T09:19:37.906Z,962.82
2022-08-17T09:20:37.850Z,962.85
2022-08-17T09:21:37.809Z,962.86
2022-08-17T09:22:37.765Z,962.82
2022-08-17T09:23:37.722Z,962.75
2022-08-17T09:24:37.690Z,962.78
2022-08-17T09:25:37.639Z,962.71
2022-08-17T09:26:37.606Z,962.71
2022-08-17T09:27:37.554Z,962.72
2022-08-17T09:28:37.508Z,962.75
2022-08-17T09:29:37.476Z,962.70
2022-08-17T09:30:37.423Z,962.72
2022-08-17T09:31:47.049Z,962.80
2022-08-17T09:32:37.355Z,962.73
2022-08-17T09:33:37.294Z,962.77
2022-08-17T09:34:37.255Z,962.77
2022-08-17T09:35:37.590Z,962.90
2022-08-17T09:36:37.190Z,962.78
2022-08-17T09:37:37.126Z,962.88
2022-08-17T09:38:37.081Z,962.91
2022-08-17T09:39:37.075Z,962.85
2022-08-17T09:40:37.000Z,962.85
2022-08-17T09:41:36.958Z,962.78
2022-08-17T09:42:36.915Z,962.82
2022-08-17T09:43:36.873Z,962.77
2022-08-17T09:44:36.846Z,962.79
2022-08-17T09:45:36.806Z,962.79
2022-08-17T09:46:38.799Z,962.81
2022-08-17T09:47:36.719Z,962.79
2022-08-17T09:48:36.665Z,962.85
2022-08-17T09:49:36.627Z,962.93
2022-08-17T09:50:55.466Z,962.81
2022-08-17T09:51:36.554Z,962.85
2022-08-17T09:52:36.496Z,962.91
2022-08-17T09:53:36.456Z,962.75
2022-08-17T09:54:40.287Z,962.80
2022-08-17T09:55:36.369Z,962.81
2022-08-17T09:56:36.345Z,962.76
2022-08-17T09:57:36.285Z,962.81
2022-08-17T09:58:36.245Z,962.79
2022-08-17T09:59:38.525Z,962.82
2022-08-17T10:00:36.171Z,962.81
2022-08-17T10:01:36.148Z,962.86
2022-08-17T10:02:36.078Z,962.88
2022-08-17T10:03:36.035Z,962.88
2022-08-17T10:04:35.990Z,962.86
2022-08-17T10:05:35.949Z,962.87
2022-08-17T10:06:35.923Z,962.87
2022-08-17T10:07:35.889Z,962.85
2022-08-17T10:08:35.822Z,962.87
2022-08-17T10:09:35.783Z,962.89
2022-08-17T10:10:35.739Z,962.84
2022-08-17T10:11:35.712Z,962.87
2022-08-17T10:12:35.653Z,962.85
2022-08-17T10:13:35.615Z,962.88
2022-08-17T10:14:36.472Z,962.84
2022-08-17T10:15:35.526Z,962.83
2022-08-17T10:16:35.484Z,962.85
2022-08-17T10:17:35.502Z,962.87
2022-08-17T10:18:35.399Z,962.83
2022-08-17T10:19:35.357Z,962.85
2022-08-17T10:20:35.314Z,962.83
2022-08-17T10:21:35.272Z,962.87
2022-08-17T10:22:37.947Z,962.86
2022-08-17T10:23:35.188Z,962.88
2022-08-17T10:24:35.163Z,962.89
2022-08-17T10:25:49.104Z,962.89
2022-08-17T10:26:35.077Z,962.88
2022-08-17T10:27:35.037Z,962.86
2022-08-17T10:28:34.976Z,962.93
2022-08-17T10:29:47.494Z,962.90
2022-08-17T10:30:34.887Z,962.88
2022-08-17T10:31:35.907Z,962.96
2022-08-17T10:32:34.817Z,962.96
2022-08-17T10:33:34.760Z,962.95
2022-08-17T10:34:41.277Z,963.02
2022-08-17T10:35:34.691Z,963.01
2022-08-17T10:36:34.633Z,963.02
2022-08-17T10:37:34.603Z,963.04
2022-08-17T10:38:34.547Z,963.05
2022-08-17T10:39:34.601Z,963.01
2022-08-17T10:40:34.460Z,963.06
2022-08-17T10:41:38.250Z,963.03
2022-08-17T10:42:34.392Z,963.05
2022-08-17T10:43:34.335Z,963.03
2022-08-17T10:44:38.974Z,963.04
2022-08-17T10:45:34.247Z,963.01
2022-08-17T10:46:34.205Z,963.00
2022-08-17T10:47:52.729Z,963.04
2022-08-17T10:48:34.138Z,963.08
2022-08-17T10:49:34.078Z,963.06
2022-08-17T10:50:34.051Z,963.08
2022-08-17T10:51:33.993Z,963.10
2022-08-17T10:52:33.953Z,963.07
2022-08-17T10:53:33.906Z,963.07
2022-08-17T10:54:33.864Z,963.07
2022-08-17T10:55:44.471Z,963.10
2022-08-17T10:56:33.779Z,963.13
2022-08-17T10:57:33.743Z,963.19
2022-08-17T10:58:33.711Z,963.11
2022-08-17T10:59:33.695Z,963.09
2022-08-17T11:00:33.693Z,963.10
2022-08-17T11:01:33.615Z,963.14
2022-08-17T11:02:33.523Z,963.09
2022-08-17T11:03:33.477Z,963.09
2022-08-17T11:04:33.452Z,963.06
2022-08-17T11:05:33.410Z,963.06
2022-08-17T11:06:33.352Z,963.07
2022-08-17T11:07:33.307Z,963.04
2022-08-17T11:08:33.264Z,963.07
2022-08-17T11:09:33.238Z,963.09
2022-08-17T11:10:33.191Z,963.12
2022-08-17T11:11:33.137Z,963.08
2022-08-17T11:12:33.093Z,963.10
2022-08-17T11:13:33.069Z,963.14
2022-08-17T11:14:33.007Z,963.13
2022-08-17T11:15:32.983Z,963.18
2022-08-17T11:16:32.928Z,963.12
2022-08-17T11:17:32.879Z,963.13
2022-08-17T11:18:32.839Z,963.09
2022-08-17T11:19:32.796Z,963.13
2022-08-17T11:20:32.769Z,963.14
2022-08-17T11:21:32.713Z,963.18
2022-08-17T11:22:33.684Z,963.15
2022-08-17T11:23:32.627Z,963.12
2022-08-17T11:24:32.584Z,963.17
2022-08-17T11:25:32.539Z,963.16
2022-08-17T11:26:32.510Z,963.19
2022-08-17T11:27:32.468Z,963.15
2022-08-17T11:28:32.411Z,963.15
2022-08-17T11:29:32.368Z,963.19
2022-08-17T11:30:32.326Z,963.14
2022-08-17T11:31:38.373Z,963.12
2022-08-17T11:32:32.239Z,963.09
2022-08-17T11:33:32.198Z,963.10
2022-08-17T11:34:32.156Z,963.09
2022-08-17T11:35:32.117Z,963.14
2022-08-17T11:36:32.081Z,963.13
2022-08-17T11:37:32.031Z,963.12
2022-08-17T11:38:31.980Z,963.15
2022-08-17T11:39:31.978Z,963.13
2022-08-17T11:40:31.910Z,963.16
2022-08-17T11:41:31.852Z,963.16
2022-08-17T11:42:31.806Z,963.16
2022-08-17T11:43:31.766Z,963.16
2022-08-17T11:44:31.726Z,963.19
2022-08-17T11:45:33.041Z,963.17
2022-08-17T11:46:31.661Z,963.21
2022-08-17T11:47:31.635Z,963.25
2022-08-17T11:48:31.978Z,963.20
2022-08-17T11:49:31.509Z,963.18
2022-08-17T11:50:31.462Z,963.19
2022-08-17T11:51:31.422Z,963.25
2022-08-17T11:52:31.392Z,963.23
2022-08-17T11:53:31.358Z,963.27
2022-08-17T11:54:33.360Z,963.30
2022-08-17T11:55:35.835Z,963.31
2022-08-17T11:56:31.206Z,963.30
2022-08-17T11:57:31.179Z,963.32
2022-08-17T11:58:31.121Z,963.37
2022-08-17T11:59:31.080Z,963.32
2022-08-17T12:00:31.031Z,963.34
2022-08-17T12:01:31.152Z,963.34
2022-08-17T12:02:31.602Z,963.34
2022-08-17T12:03:30.955Z,963.35
2022-08-17T12:04:30.879Z,963.33
2022-08-17T12:05:30.837Z,963.36
2022-08-17T12:06:31.158Z,963.36
2022-08-17T12:07:30.731Z,963.40
2022-08-17T12:08:30.701Z,963.40
2022-08-17T12:09:30.643Z,963.49
2022-08-17T12:10:30.601Z,963.47
2022-08-17T12:12:11.276Z,963.48
2022-08-17T12:12:30.513Z,963.55
2022-08-17T12:13:38.669Z,963.55
2022-08-17T12:15:05.981Z,963.63
2022-08-17T12:15:30.381Z,963.62
2022-08-17T12:16:30.342Z,963.69
2022-08-17T12:17:41.499Z,963.70
2022-08-17T12:18:30.265Z,963.73
2022-08-17T12:19:30.222Z,963.77
2022-08-17T12:20:30.210Z,963.84
2022-08-17T12:21:30.127Z,963.84
2022-08-17T12:22:30.075Z,963.84
2022-08-17T12:23:30.051Z,963.84
2022-08-17T12:24:29.992Z,963.80
2022-08-17T12:25:29.989Z,963.80
2022-08-17T12:26:29.917Z,963.81
2022-08-17T12:27:48.961Z,963.80
2022-08-17T12:28:29.814Z,963.82